ZBTJ/TSN METAR and TAF weather

Enter ICAO airport designator
Station Type Date Time Source
ZBTJ METAR 2022/08/13 12:00 UTC NOAA

ZBTJ 131200Z 13003MPS CAVOK 27/23 Q1005 NOSIG


Station Type Date Time Source
ZBTJ Decoded METAR 2022/08/13 12:00 UTC NOAA

Tianjin / Zhangguizhu, China (ZBTJ) 39-11N 117-21E
Aug 13, 2022 - 08:00 AM EDT / 2022.08.13 1200 UTC
Wind: from the SE (130 degrees) at 7 MPH (6 KT):0
Visibility: greater than 7 mile(s):0
Temperature: 80 F (27 C)
Dew Point: 73 F (23 C)
Relative Humidity: 78%
Pressure (altimeter): 29.68 in. Hg (1005 hPa)
ob: ZBTJ 131200Z 13003MPS CAVOK 27/23 Q1005 NOSIG
cycle: 12

Station Type Date Time Source
ZBTJ TAF 2022/08/13 12:03 UTC NOAA

TAF ZBTJ 130910Z 1312/1412 09004MPS 5000 BR OVC030 TX27/1406Z TN23/1321Z
BECMG 1320/1321 3000 -RA BR
BECMG 1407/1408 BR

Example: see airport list